sensor_id;sensor_type;location;lat;lon;timestamp;P1;durP1;ratioP1;P2;durP2;ratioP2
35022;SDS011;21214;44.912;8.204;2022-11-02T08:50:20;41.75;;;26.85;;
35022;SDS011;21214;44.912;8.204;2022-11-02T08:52:48;41.63;;;27.88;;
35022;SDS011;21214;44.912;8.204;2022-11-02T08:55:13;42.63;;;28.80;;
35022;SDS011;21214;44.912;8.204;2022-11-02T08:57:48;42.45;;;28.92;;
35022;SDS011;21214;44.912;8.204;2022-11-02T09:00:16;38.92;;;26.55;;
35022;SDS011;21214;44.912;8.204;2022-11-02T09:02:43;39.47;;;26.85;;
35022;SDS011;21214;44.912;8.204;2022-11-02T09:05:09;34.88;;;26.17;;
35022;SDS011;21214;44.912;8.204;2022-11-02T09:07:35;39.25;;;27.92;;
35022;SDS011;21214;44.912;8.204;2022-11-02T09:10:01;41.13;;;27.58;;
35022;SDS011;21214;44.912;8.204;2022-11-02T09:12:27;42.58;;;28.23;;
35022;SDS011;21214;44.912;8.204;2022-11-02T09:14:52;39.55;;;27.70;;
35022;SDS011;21214;44.912;8.204;2022-11-02T09:17:18;41.00;;;28.13;;
35022;SDS011;21214;44.912;8.204;2022-11-02T09:19:43;42.40;;;29.55;;
35022;SDS011;21214;44.912;8.204;2022-11-02T09:22:09;44.58;;;29.10;;
35022;SDS011;21214;44.912;8.204;2022-11-02T09:24:35;41.88;;;28.42;;
35022;SDS011;21214;44.912;8.204;2022-11-02T09:27:01;46.60;;;29.13;;
35022;SDS011;21214;44.912;8.204;2022-11-02T09:29:26;40.00;;;28.45;;
35022;SDS011;21214;44.912;8.204;2022-11-02T09:31:51;48.45;;;31.63;;
35022;SDS011;21214;44.912;8.204;2022-11-02T09:34:17;41.78;;;29.80;;
35022;SDS011;21214;44.912;8.204;2022-11-02T09:36:43;36.20;;;27.48;;
35022;SDS011;21214;44.912;8.204;2022-11-02T09:39:08;37.17;;;27.58;;
35022;SDS011;21214;44.912;8.204;2022-11-02T09:41:41;40.97;;;29.10;;
35022;SDS011;21214;44.912;8.204;2022-11-02T09:46:47;33.55;;;26.33;;
35022;SDS011;21214;44.912;8.204;2022-11-02T09:49:14;37.45;;;26.15;;
35022;SDS011;21214;44.912;8.204;2022-11-02T09:51:46;31.02;;;25.00;;
35022;SDS011;21214;44.912;8.204;2022-11-02T09:54:19;33.38;;;28.33;;
35022;SDS011;21214;44.912;8.204;2022-11-02T11:13:17;29.20;;;22.42;;
35022;SDS011;21214;44.912;8.204;2022-11-02T11:15:50;31.45;;;23.48;;
35022;SDS011;21214;44.912;8.204;2022-11-02T11:18:19;31.48;;;23.33;;
35022;SDS011;21214;44.912;8.204;2022-11-02T11:20:45;34.33;;;22.90;;
35022;SDS011;21214;44.912;8.204;2022-11-02T11:25:42;28.67;;;22.23;;
35022;SDS011;21214;44.912;8.204;2022-11-02T11:30:46;30.50;;;23.92;;
35022;SDS011;21214;44.912;8.204;2022-11-02T11:33:25;31.85;;;23.30;;
35022;SDS011;21214;44.912;8.204;2022-11-02T11:35:50;33.08;;;25.45;;
35022;SDS011;21214;44.912;8.204;2022-11-02T11:38:22;29.73;;;23.25;;
35022;SDS011;21214;44.912;8.204;2022-11-02T11:40:52;29.17;;;22.20;;
35022;SDS011;21214;44.912;8.204;2022-11-02T11:43:24;28.50;;;21.65;;
35022;SDS011;21214;44.912;8.204;2022-11-02T11:45:54;29.60;;;23.30;;
35022;SDS011;21214;44.912;8.204;2022-11-02T11:51:22;31.13;;;22.80;;
35022;SDS011;21214;44.912;8.204;2022-11-02T11:56:42;29.13;;;20.15;;
35022;SDS011;21214;44.912;8.204;2022-11-02T11:59:27;26.50;;;19.70;;
35022;SDS011;21214;44.912;8.204;2022-11-02T12:02:20;27.13;;;20.85;;
35022;SDS011;21214;44.912;8.204;2022-11-02T12:04:50;27.35;;;20.67;;
35022;SDS011;21214;44.912;8.204;2022-11-02T12:21:21;24.50;;;17.80;;
35022;SDS011;21214;44.912;8.204;2022-11-02T12:26:45;29.98;;;21.55;;
35022;SDS011;21214;44.912;8.204;2022-11-02T12:40:53;25.40;;;18.05;;
35022;SDS011;21214;44.912;8.204;2022-11-02T12:43:38;23.35;;;17.55;;
35022;SDS011;21214;44.912;8.204;2022-11-02T12:46:14;25.58;;;18.50;;
35022;SDS011;21214;44.912;8.204;2022-11-02T12:54:50;23.13;;;18.50;;
35022;SDS011;21214;44.912;8.204;2022-11-02T12:57:23;22.25;;;18.98;;
35022;SDS011;21214;44.912;8.204;2022-11-02T12:59:53;23.17;;;18.33;;
35022;SDS011;21214;44.912;8.204;2022-11-02T13:05:05;21.40;;;19.02;;
35022;SDS011;21214;44.912;8.204;2022-11-02T13:10:19;23.90;;;17.25;;
35022;SDS011;21214;44.912;8.204;2022-11-02T13:12:50;22.50;;;17.35;;
35022;SDS011;21214;44.912;8.204;2022-11-02T13:15:21;20.80;;;15.98;;
35022;SDS011;21214;44.912;8.204;2022-11-02T13:17:50;24.23;;;16.27;;
35022;SDS011;21214;44.912;8.204;2022-11-02T13:20:25;21.02;;;17.50;;
35022;SDS011;21214;44.912;8.204;2022-11-02T13:26:06;21.65;;;15.40;;
35022;SDS011;21214;44.912;8.204;2022-11-02T13:28:42;20.00;;;14.02;;
35022;SDS011;21214;44.912;8.204;2022-11-02T13:31:13;18.77;;;14.30;;
35022;SDS011;21214;44.912;8.204;2022-11-02T13:33:48;15.80;;;13.02;;
35022;SDS011;21214;44.912;8.204;2022-11-02T13:36:17;18.30;;;13.95;;
35022;SDS011;21214;44.912;8.204;2022-11-02T13:38:47;21.27;;;15.13;;
35022;SDS011;21214;44.912;8.204;2022-11-02T13:52:11;19.42;;;15.25;;
35022;SDS011;21214;44.912;8.204;2022-11-02T13:54:43;23.10;;;16.05;;
35022;SDS011;21214;44.912;8.204;2022-11-02T13:59:59;21.13;;;15.45;;
35022;SDS011;21214;44.912;8.204;2022-11-02T14:04:57;21.38;;;15.30;;
35022;SDS011;21214;44.912;8.204;2022-11-02T14:07:34;20.48;;;15.25;;
35022;SDS011;21214;44.912;8.204;2022-11-02T14:10:12;23.53;;;16.20;;
35022;SDS011;21214;44.912;8.204;2022-11-02T14:12:42;20.80;;;16.65;;
35022;SDS011;21214;44.912;8.204;2022-11-02T14:38:57;21.90;;;15.90;;
35022;SDS011;21214;44.912;8.204;2022-11-02T14:46:49;19.05;;;15.55;;
35022;SDS011;21214;44.912;8.204;2022-11-02T14:49:22;20.63;;;15.85;;
